sensor_id;sensor_type;location;lat;lon;timestamp;pressure;altitude;pressure_sealevel;temperature;humidity
70916;BME280;58557;50.982;-3.222;2022-10-16T00:00:24;99812.36;;;12.10;50.99
70916;BME280;58557;50.982;-3.222;2022-10-16T00:02:50;99812.35;;;12.88;50.05
70916;BME280;58557;50.982;-3.222;2022-10-16T00:05:16;99813.79;;;12.50;50.30
70916;BME280;58557;50.982;-3.222;2022-10-16T00:07:41;99810.29;;;12.57;49.73
70916;BME280;58557;50.982;-3.222;2022-10-16T00:10:07;99805.31;;;13.53;48.35
70916;BME280;58557;50.982;-3.222;2022-10-16T00:12:32;99808.16;;;12.14;50.37
70916;BME280;58557;50.982;-3.222;2022-10-16T00:14:58;99815.82;;;13.00;49.29
70916;BME280;58557;50.982;-3.222;2022-10-16T00:17:24;99819.44;;;12.37;50.22
70916;BME280;58557;50.982;-3.222;2022-10-16T00:19:50;99821.62;;;12.80;49.50
70916;BME280;58557;50.982;-3.222;2022-10-16T00:22:16;99824.27;;;12.71;49.74
70916;BME280;58557;50.982;-3.222;2022-10-16T00:24:42;99823.99;;;12.46;50.32
70916;BME280;58557;50.982;-3.222;2022-10-16T00:27:07;99822.40;;;12.64;50.18
70916;BME280;58557;50.982;-3.222;2022-10-16T00:29:33;99822.59;;;11.67;51.88
70916;BME280;58557;50.982;-3.222;2022-10-16T00:31:59;99826.83;;;12.64;50.30
70916;BME280;58557;50.982;-3.222;2022-10-16T00:34:25;99825.12;;;11.99;51.98
70916;BME280;58557;50.982;-3.222;2022-10-16T00:36:50;99829.17;;;12.60;50.95
70916;BME280;58557;50.982;-3.222;2022-10-16T00:39:16;99833.49;;;12.88;50.93
70916;BME280;58557;50.982;-3.222;2022-10-16T00:41:42;99834.19;;;12.95;50.96
70916;BME280;58557;50.982;-3.222;2022-10-16T00:46:38;99834.46;;;12.25;51.94
70916;BME280;58557;50.982;-3.222;2022-10-16T00:49:03;99838.08;;;11.94;51.81
70916;BME280;58557;50.982;-3.222;2022-10-16T00:51:30;99843.67;;;12.01;52.71
70916;BME280;58557;50.982;-3.222;2022-10-16T00:53:50;99844.33;;;12.05;53.40
70916;BME280;58557;50.982;-3.222;2022-10-16T00:56:16;99853.15;;;11.56;53.65
70916;BME280;58557;50.982;-3.222;2022-10-16T00:58:41;99843.62;;;11.95;52.97
70916;BME280;58557;50.982;-3.222;2022-10-16T01:01:07;99855.23;;;11.57;54.43
70916;BME280;58557;50.982;-3.222;2022-10-16T01:03:36;99850.51;;;11.96;53.51
70916;BME280;58557;50.982;-3.222;2022-10-16T01:06:09;99848.60;;;12.13;53.10
70916;BME280;58557;50.982;-3.222;2022-10-16T01:08:30;99852.35;;;11.62;53.76
70916;BME280;58557;50.982;-3.222;2022-10-16T01:10:55;99857.85;;;11.56;53.65
70916;BME280;58557;50.982;-3.222;2022-10-16T01:13:20;99861.89;;;11.69;53.97
70916;BME280;58557;50.982;-3.222;2022-10-16T01:15:45;99860.28;;;10.96;53.24
70916;BME280;58557;50.982;-3.222;2022-10-16T01:18:12;99863.68;;;11.93;52.84
70916;BME280;58557;50.982;-3.222;2022-10-16T01:20:36;99865.29;;;11.70;53.11
70916;BME280;58557;50.982;-3.222;2022-10-16T01:23:07;99866.76;;;11.40;53.60
70916;BME280;58557;50.982;-3.222;2022-10-16T01:25:30;99869.54;;;10.95;55.24
70916;BME280;58557;50.982;-3.222;2022-10-16T01:27:51;99870.06;;;11.40;54.04
70916;BME280;58557;50.982;-3.222;2022-10-16T01:30:21;99862.97;;;12.22;52.49
70916;BME280;58557;50.982;-3.222;2022-10-16T01:32:46;99872.60;;;11.65;53.61
70916;BME280;58557;50.982;-3.222;2022-10-16T01:35:11;99875.69;;;11.79;52.99
70916;BME280;58557;50.982;-3.222;2022-10-16T01:37:37;99882.31;;;11.78;53.11
70916;BME280;58557;50.982;-3.222;2022-10-16T01:40:00;99882.48;;;11.93;52.58
70916;BME280;58557;50.982;-3.222;2022-10-16T01:42:28;99886.99;;;11.86;52.45
70916;BME280;58557;50.982;-3.222;2022-10-16T01:44:51;99886.44;;;12.15;51.38
70916;BME280;58557;50.982;-3.222;2022-10-16T01:47:17;99891.50;;;11.84;51.80
70916;BME280;58557;50.982;-3.222;2022-10-16T01:49:43;99893.81;;;11.54;52.14
70916;BME280;58557;50.982;-3.222;2022-10-16T01:52:10;99889.04;;;12.11;51.37
70916;BME280;58557;50.982;-3.222;2022-10-16T01:54:35;99892.85;;;10.62;54.01
70916;BME280;58557;50.982;-3.222;2022-10-16T01:56:59;99894.40;;;11.83;51.52
70916;BME280;58557;50.982;-3.222;2022-10-16T01:59:26;99894.48;;;11.61;51.58
70916;BME280;58557;50.982;-3.222;2022-10-16T02:01:54;99900.72;;;12.02;50.81
70916;BME280;58557;50.982;-3.222;2022-10-16T02:04:20;99899.12;;;10.97;51.94
70916;BME280;58557;50.982;-3.222;2022-10-16T02:06:42;99905.22;;;11.12;52.65
70916;BME280;58557;50.982;-3.222;2022-10-16T02:09:08;99899.09;;;11.76;51.79
70916;BME280;58557;50.982;-3.222;2022-10-16T02:11:33;99903.97;;;11.91;50.58
70916;BME280;58557;50.982;-3.222;2022-10-16T02:14:03;99905.85;;;11.94;50.51
70916;BME280;58557;50.982;-3.222;2022-10-16T02:16:33;99906.62;;;11.68;50.39
70916;BME280;58557;50.982;-3.222;2022-10-16T02:18:51;99906.49;;;11.59;51.03
70916;BME280;58557;50.982;-3.222;2022-10-16T02:21:21;99910.48;;;11.51;51.11
70916;BME280;58557;50.982;-3.222;2022-10-16T02:23:45;99916.57;;;11.49;51.13
70916;BME280;58557;50.982;-3.222;2022-10-16T02:26:09;99918.28;;;11.64;50.90
70916;BME280;58557;50.982;-3.222;2022-10-16T02:28:38;99922.76;;;12.33;49.89
70916;BME280;58557;50.982;-3.222;2022-10-16T02:31:03;99925.54;;;11.51;50.83
70916;BME280;58557;50.982;-3.222;2022-10-16T02:33:26;99927.74;;;12.43;48.75
70916;BME280;58557;50.982;-3.222;2022-10-16T02:35:51;99922.22;;;12.65;48.43
70916;BME280;58557;50.982;-3.222;2022-10-16T02:38:17;99932.53;;;11.66;50.26
70916;BME280;58557;50.982;-3.222;2022-10-16T02:40:42;99943.24;;;11.60;50.50
70916;BME280;58557;50.982;-3.222;2022-10-16T02:43:08;99949.83;;;12.43;49.00
70916;BME280;58557;50.982;-3.222;2022-10-16T02:45:34;99956.77;;;12.46;48.91
70916;BME280;58557;50.982;-3.222;2022-10-16T02:47:59;99957.57;;;12.15;49.06
70916;BME280;58557;50.982;-3.222;2022-10-16T02:50:25;99962.30;;;11.99;48.63
70916;BME280;58557;50.982;-3.222;2022-10-16T02:52:51;99966.77;;;12.36;48.85
70916;BME280;58557;50.982;-3.222;2022-10-16T02:55:17;99965.77;;;12.64;49.04
70916;BME280;58557;50.982;-3.222;2022-10-16T02:57:42;99962.96;;;13.25;47.07
70916;BME280;58557;50.982;-3.222;2022-10-16T03:00:11;99963.44;;;12.91;47.90
70916;BME280;58557;50.982;-3.222;2022-10-16T03:02:35;99973.97;;;12.21;49.44
70916;BME280;58557;50.982;-3.222;2022-10-16T03:05:00;99980.38;;;12.51;48.21
70916;BME280;58557;50.982;-3.222;2022-10-16T03:07:25;99979.69;;;12.63;48.04
70916;BME280;58557;50.982;-3.222;2022-10-16T03:09:51;99982.18;;;12.60;47.83
70916;BME280;58557;50.982;-3.222;2022-10-16T03:12:17;99978.36;;;12.92;47.71
70916;BME280;58557;50.982;-3.222;2022-10-16T03:14:43;99983.65;;;13.04;47.34
70916;BME280;58557;50.982;-3.222;2022-10-16T03:17:09;99988.36;;;12.72;48.09
70916;BME280;58557;50.982;-3.222;2022-10-16T03:19:34;99995.83;;;12.75;48.09
70916;BME280;58557;50.982;-3.222;2022-10-16T03:22:00;99989.76;;;12.69;48.13
70916;BME280;58557;50.982;-3.222;2022-10-16T03:24:26;99996.26;;;12.34;48.85
70916;BME280;58557;50.982;-3.222;2022-10-16T03:26:52;99999.43;;;12.27;48.98
70916;BME280;58557;50.982;-3.222;2022-10-16T03:29:17;100006.04;;;12.64;48.23
70916;BME280;58557;50.982;-3.222;2022-10-16T03:31:43;100006.12;;;13.16;47.37
70916;BME280;58557;50.982;-3.222;2022-10-16T03:34:09;100009.25;;;13.01;47.25
70916;BME280;58557;50.982;-3.222;2022-10-16T03:36:34;100010.35;;;12.87;48.41
70916;BME280;58557;50.982;-3.222;2022-10-16T03:39:00;100016.31;;;12.68;48.59
70916;BME280;58557;50.982;-3.222;2022-10-16T03:41:26;100012.69;;;13.16;47.35
70916;BME280;58557;50.982;-3.222;2022-10-16T03:43:52;100014.61;;;13.14;47.85
70916;BME280;58557;50.982;-3.222;2022-10-16T03:46:18;100019.04;;;13.40;47.84
70916;BME280;58557;50.982;-3.222;2022-10-16T03:48:43;100024.23;;;13.83;46.67
70916;BME280;58557;50.982;-3.222;2022-10-16T03:51:09;100027.52;;;13.00;47.72
70916;BME280;58557;50.982;-3.222;2022-10-16T03:53:35;100030.94;;;13.13;47.36
70916;BME280;58557;50.982;-3.222;2022-10-16T03:56:01;100032.55;;;14.17;45.72
70916;BME280;58557;50.982;-3.222;2022-10-16T03:58:26;100034.36;;;13.54;46.64
70916;BME280;58557;50.982;-3.222;2022-10-16T04:00:52;100036.45;;;14.09;45.74
70916;BME280;58557;50.982;-3.222;2022-10-16T04:03:18;100040.39;;;13.94;45.95
70916;BME280;58557;50.982;-3.222;2022-10-16T04:05:44;100044.12;;;13.79;46.73
70916;BME280;58557;50.982;-3.222;2022-10-16T04:08:09;100047.26;;;13.80;46.06
70916;BME280;58557;50.982;-3.222;2022-10-16T04:10:35;100045.06;;;14.04;45.59
70916;BME280;58557;50.982;-3.222;2022-10-16T04:13:01;100050.84;;;14.55;45.11
70916;BME280;58557;50.982;-3.222;2022-10-16T04:15:26;100053.86;;;14.78;44.34
70916;BME280;58557;50.982;-3.222;2022-10-16T04:17:52;100056.11;;;14.12;45.67
70916;BME280;58557;50.982;-3.222;2022-10-16T04:20:18;100064.57;;;14.51;45.14
70916;BME280;58557;50.982;-3.222;2022-10-16T04:22:44;100069.75;;;13.87;46.37
70916;BME280;58557;50.982;-3.222;2022-10-16T04:25:10;100074.17;;;14.38;45.46
70916;BME280;58557;50.982;-3.222;2022-10-16T04:27:35;100074.84;;;14.33;44.59
70916;BME280;58557;50.982;-3.222;2022-10-16T04:30:01;100079.83;;;14.40;45.04
70916;BME280;58557;50.982;-3.222;2022-10-16T04:32:27;100078.19;;;14.97;43.21
70916;BME280;58557;50.982;-3.222;2022-10-16T04:34:52;100082.39;;;14.82;44.27
70916;BME280;58557;50.982;-3.222;2022-10-16T04:37:18;100082.77;;;14.87;43.66
70916;BME280;58557;50.982;-3.222;2022-10-16T04:39:43;100089.19;;;14.75;43.95
70916;BME280;58557;50.982;-3.222;2022-10-16T04:42:08;100091.13;;;14.99;43.32
70916;BME280;58557;50.982;-3.222;2022-10-16T04:44:34;100096.30;;;15.40;42.07
70916;BME280;58557;50.982;-3.222;2022-10-16T04:47:00;100101.31;;;15.03;43.55
70916;BME280;58557;50.982;-3.222;2022-10-16T04:49:26;100107.85;;;15.21;44.11
70916;BME280;58557;50.982;-3.222;2022-10-16T04:51:51;100110.56;;;14.29;45.36
70916;BME280;58557;50.982;-3.222;2022-10-16T04:54:16;100115.87;;;14.27;45.59
70916;BME280;58557;50.982;-3.222;2022-10-16T04:56:41;100125.21;;;14.19;45.66
70916;BME280;58557;50.982;-3.222;2022-10-16T04:59:07;100130.13;;;13.60;45.73
70916;BME280;58557;50.982;-3.222;2022-10-16T05:01:33;100136.13;;;13.17;47.66
70916;BME280;58557;50.982;-3.222;2022-10-16T05:03:58;100139.32;;;12.96;48.75
70916;BME280;58557;50.982;-3.222;2022-10-16T05:06:23;100144.25;;;13.08;47.95
70916;BME280;58557;50.982;-3.222;2022-10-16T05:08:49;100142.12;;;11.59;52.13
70916;BME280;58557;50.982;-3.222;2022-10-16T05:11:15;100145.33;;;12.70;49.61
70916;BME280;58557;50.982;-3.222;2022-10-16T05:13:40;100150.99;;;12.46;50.07
70916;BME280;58557;50.982;-3.222;2022-10-16T05:16:06;100153.15;;;12.54;50.24
70916;BME280;58557;50.982;-3.222;2022-10-16T05:18:31;100149.83;;;13.90;47.03
70916;BME280;58557;50.982;-3.222;2022-10-16T05:20:57;100157.80;;;14.25;44.48
70916;BME280;58557;50.982;-3.222;2022-10-16T05:23:22;100164.32;;;13.89;46.73
70916;BME280;58557;50.982;-3.222;2022-10-16T05:25:53;100172.37;;;13.74;46.68
70916;BME280;58557;50.982;-3.222;2022-10-16T05:28:13;100177.72;;;13.43;47.89
70916;BME280;58557;50.982;-3.222;2022-10-16T05:30:39;100181.94;;;13.08;47.18
70916;BME280;58557;50.982;-3.222;2022-10-16T05:33:04;100184.80;;;13.91;46.96
70916;BME280;58557;50.982;-3.222;2022-10-16T05:35:30;100189.01;;;13.63;46.93
70916;BME280;58557;50.982;-3.222;2022-10-16T05:37:55;100189.56;;;13.36;47.41
70916;BME280;58557;50.982;-3.222;2022-10-16T05:40:21;100189.17;;;12.62;47.75
70916;BME280;58557;50.982;-3.222;2022-10-16T05:42:46;100189.21;;;13.22;45.68
70916;BME280;58557;50.982;-3.222;2022-10-16T05:45:12;100194.08;;;13.69;46.08
70916;BME280;58557;50.982;-3.222;2022-10-16T05:47:37;100188.80;;;13.86;44.90
70916;BME280;58557;50.982;-3.222;2022-10-16T05:50:04;100186.48;;;14.45;43.81
70916;BME280;58557;50.982;-3.222;2022-10-16T05:52:29;100186.97;;;15.26;42.76
70916;BME280;58557;50.982;-3.222;2022-10-16T05:54:54;100188.28;;;14.94;42.93
70916;BME280;58557;50.982;-3.222;2022-10-16T05:57:19;100188.19;;;13.98;43.67
70916;BME280;58557;50.982;-3.222;2022-10-16T05:59:45;100185.70;;;14.92;42.72
70916;BME280;58557;50.982;-3.222;2022-10-16T06:02:12;100187.59;;;15.18;42.26
70916;BME280;58557;50.982;-3.222;2022-10-16T06:04:37;100188.82;;;14.63;42.63
70916;BME280;58557;50.982;-3.222;2022-10-16T06:07:02;100194.13;;;14.53;43.03
70916;BME280;58557;50.982;-3.222;2022-10-16T06:09:28;100195.80;;;14.53;42.91
70916;BME280;58557;50.982;-3.222;2022-10-16T06:11:53;100194.14;;;14.29;43.42
70916;BME280;58557;50.982;-3.222;2022-10-16T06:14:19;100201.78;;;14.64;42.62
70916;BME280;58557;50.982;-3.222;2022-10-16T06:16:45;100205.89;;;14.66;42.78
70916;BME280;58557;50.982;-3.222;2022-10-16T06:19:10;100211.50;;;14.34;43.09
70916;BME280;58557;50.982;-3.222;2022-10-16T06:21:36;100216.13;;;14.65;42.76
70916;BME280;58557;50.982;-3.222;2022-10-16T06:24:01;100221.97;;;15.41;41.35
70916;BME280;58557;50.982;-3.222;2022-10-16T06:26:28;100220.85;;;14.63;42.26
70916;BME280;58557;50.982;-3.222;2022-10-16T06:28:54;100223.90;;;14.39;43.11
70916;BME280;58557;50.982;-3.222;2022-10-16T06:31:17;100227.94;;;14.29;42.90
70916;BME280;58557;50.982;-3.222;2022-10-16T06:33:43;100228.07;;;14.67;42.45
70916;BME280;58557;50.982;-3.222;2022-10-16T06:36:10;100231.38;;;14.20;42.23
70916;BME280;58557;50.982;-3.222;2022-10-16T06:38:34;100230.16;;;13.81;42.75
70916;BME280;58557;50.982;-3.222;2022-10-16T06:40:59;100231.73;;;13.89;42.77
70916;BME280;58557;50.982;-3.222;2022-10-16T06:43:25;100225.58;;;14.21;42.61
70916;BME280;58557;50.982;-3.222;2022-10-16T06:45:51;100228.51;;;14.13;42.87
70916;BME280;58557;50.982;-3.222;2022-10-16T06:48:16;100228.55;;;13.97;42.86
70916;BME280;58557;50.982;-3.222;2022-10-16T06:50:41;100235.16;;;14.11;43.40
70916;BME280;58557;50.982;-3.222;2022-10-16T06:53:07;100242.39;;;14.41;43.31
70916;BME280;58557;50.982;-3.222;2022-10-16T06:55:33;100246.50;;;14.06;43.30
70916;BME280;58557;50.982;-3.222;2022-10-16T06:57:58;100246.56;;;13.90;43.61
70916;BME280;58557;50.982;-3.222;2022-10-16T07:00:23;100249.75;;;12.55;45.57
70916;BME280;58557;50.982;-3.222;2022-10-16T07:02:50;100245.45;;;14.50;42.73
70916;BME280;58557;50.982;-3.222;2022-10-16T07:05:14;100249.18;;;14.22;43.47
70916;BME280;58557;50.982;-3.222;2022-10-16T07:07:40;100253.65;;;13.88;43.84
70916;BME280;58557;50.982;-3.222;2022-10-16T07:10:05;100255.81;;;13.57;43.90
70916;BME280;58557;50.982;-3.222;2022-10-16T07:12:31;100259.79;;;13.58;44.35
70916;BME280;58557;50.982;-3.222;2022-10-16T07:14:56;100263.36;;;14.18;43.22
70916;BME280;58557;50.982;-3.222;2022-10-16T07:17:22;100265.60;;;14.25;43.53
70916;BME280;58557;50.982;-3.222;2022-10-16T07:19:47;100268.37;;;14.70;43.38
70916;BME280;58557;50.982;-3.222;2022-10-16T07:22:12;100269.90;;;14.48;43.55
70916;BME280;58557;50.982;-3.222;2022-10-16T07:24:37;100276.73;;;13.63;44.53
70916;BME280;58557;50.982;-3.222;2022-10-16T07:27:03;100276.89;;;14.63;43.31
70916;BME280;58557;50.982;-3.222;2022-10-16T07:29:28;100279.36;;;14.56;43.20
70916;BME280;58557;50.982;-3.222;2022-10-16T07:31:54;100279.45;;;16.16;41.17
70916;BME280;58557;50.982;-3.222;2022-10-16T07:34:20;100279.86;;;15.55;41.81
70916;BME280;58557;50.982;-3.222;2022-10-16T07:36:47;100279.56;;;15.81;41.83
70916;BME280;58557;50.982;-3.222;2022-10-16T07:39:10;100280.22;;;15.27;43.10
70916;BME280;58557;50.982;-3.222;2022-10-16T07:41:36;100280.49;;;14.42;44.80
70916;BME280;58557;50.982;-3.222;2022-10-16T07:44:01;100293.00;;;15.34;43.80
70916;BME280;58557;50.982;-3.222;2022-10-16T07:46:27;100296.44;;;15.63;42.11
70916;BME280;58557;50.982;-3.222;2022-10-16T07:48:52;100301.57;;;16.15;41.46
70916;BME280;58557;50.982;-3.222;2022-10-16T07:51:20;100306.69;;;16.06;41.47
70916;BME280;58557;50.982;-3.222;2022-10-16T07:53:44;100307.97;;;16.32;41.41
70916;BME280;58557;50.982;-3.222;2022-10-16T07:56:10;100313.41;;;16.45;40.16
70916;BME280;58557;50.982;-3.222;2022-10-16T07:58:36;100316.62;;;17.32;39.83
70916;BME280;58557;50.982;-3.222;2022-10-16T08:01:04;100323.67;;;16.09;40.80
70916;BME280;58557;50.982;-3.222;2022-10-16T08:03:26;100329.70;;;18.42;38.04
70916;BME280;58557;50.982;-3.222;2022-10-16T08:05:52;100328.50;;;19.47;37.04
70916;BME280;58557;50.982;-3.222;2022-10-16T08:08:18;100327.37;;;20.34;35.12
70916;BME280;58557;50.982;-3.222;2022-10-16T08:10:44;100327.07;;;20.49;33.80
70916;BME280;58557;50.982;-3.222;2022-10-16T08:13:09;100327.06;;;20.14;34.58
70916;BME280;58557;50.982;-3.222;2022-10-16T08:15:35;100324.62;;;19.85;35.35
70916;BME280;58557;50.982;-3.222;2022-10-16T08:18:03;100324.58;;;19.75;34.76
70916;BME280;58557;50.982;-3.222;2022-10-16T08:20:27;100331.71;;;19.55;36.03
70916;BME280;58557;50.982;-3.222;2022-10-16T08:22:52;100331.32;;;19.59;36.04
70916;BME280;58557;50.982;-3.222;2022-10-16T08:25:17;100330.30;;;19.98;35.67
70916;BME280;58557;50.982;-3.222;2022-10-16T08:27:43;100326.67;;;19.95;35.92
70916;BME280;58557;50.982;-3.222;2022-10-16T08:30:10;100329.64;;;20.88;35.25
70916;BME280;58557;50.982;-3.222;2022-10-16T08:32:35;100330.01;;;20.22;34.97
70916;BME280;58557;50.982;-3.222;2022-10-16T08:35:00;100332.54;;;21.05;35.24
70916;BME280;58557;50.982;-3.222;2022-10-16T08:37:30;100337.12;;;22.94;31.79
70916;BME280;58557;50.982;-3.222;2022-10-16T08:39:51;100337.33;;;22.72;31.71
70916;BME280;58557;50.982;-3.222;2022-10-16T08:42:30;100340.55;;;23.28;31.55
70916;BME280;58557;50.982;-3.222;2022-10-16T08:47:14;100340.54;;;20.15;35.17
70916;BME280;58557;50.982;-3.222;2022-10-16T08:49:33;100340.90;;;20.10;35.75
70916;BME280;58557;50.982;-3.222;2022-10-16T08:51:59;100341.73;;;19.66;36.31
70916;BME280;58557;50.982;-3.222;2022-10-16T08:54:29;100340.99;;;19.03;37.31
70916;BME280;58557;50.982;-3.222;2022-10-16T08:56:49;100341.03;;;20.25;36.44
70916;BME280;58557;50.982;-3.222;2022-10-16T08:59:16;100344.56;;;18.23;39.48
70916;BME280;58557;50.982;-3.222;2022-10-16T09:01:44;100340.57;;;17.63;41.46
70916;BME280;58557;50.982;-3.222;2022-10-16T09:04:26;100338.59;;;17.89;41.00
70916;BME280;58557;50.982;-3.222;2022-10-16T09:06:38;100343.12;;;18.91;39.73
70916;BME280;58557;50.982;-3.222;2022-10-16T09:09:07;100342.98;;;18.17;39.82
70916;BME280;58557;50.982;-3.222;2022-10-16T09:11:34;100345.84;;;18.98;39.78
70916;BME280;58557;50.982;-3.222;2022-10-16T09:13:51;100350.08;;;18.53;40.08
70916;BME280;58557;50.982;-3.222;2022-10-16T09:16:19;100353.61;;;18.67;39.90
70916;BME280;58557;50.982;-3.222;2022-10-16T09:18:44;100346.04;;;18.14;40.70
70916;BME280;58557;50.982;-3.222;2022-10-16T09:21:09;100345.74;;;18.06;41.75
70916;BME280;58557;50.982;-3.222;2022-10-16T09:23:33;100350.71;;;17.62;41.81
70916;BME280;58557;50.982;-3.222;2022-10-16T09:25:57;100353.19;;;16.92;43.32
70916;BME280;58557;50.982;-3.222;2022-10-16T09:28:21;100352.65;;;17.57;43.86
70916;BME280;58557;50.982;-3.222;2022-10-16T09:30:47;100351.88;;;18.28;41.40
70916;BME280;58557;50.982;-3.222;2022-10-16T09:33:13;100352.57;;;18.57;41.15
70916;BME280;58557;50.982;-3.222;2022-10-16T09:35:39;100354.07;;;17.89;41.57
70916;BME280;58557;50.982;-3.222;2022-10-16T09:38:02;100355.40;;;18.84;40.57
70916;BME280;58557;50.982;-3.222;2022-10-16T09:40:31;100357.71;;;19.06;39.68
70916;BME280;58557;50.982;-3.222;2022-10-16T09:43:02;100351.29;;;19.13;39.40
70916;BME280;58557;50.982;-3.222;2022-10-16T09:45:22;100347.46;;;19.46;40.40
70916;BME280;58557;50.982;-3.222;2022-10-16T09:47:45;100344.41;;;19.89;38.58
70916;BME280;58557;50.982;-3.222;2022-10-16T09:50:20;100337.56;;;20.90;36.70
70916;BME280;58557;50.982;-3.222;2022-10-16T09:52:36;100334.80;;;20.72;36.68
70916;BME280;58557;50.982;-3.222;2022-10-16T09:57:27;100336.01;;;19.80;36.29
70916;BME280;58557;50.982;-3.222;2022-10-16T09:59:54;100337.67;;;20.52;35.22
70916;BME280;58557;50.982;-3.222;2022-10-16T10:02:30;100339.46;;;20.44;35.13
70916;BME280;58557;50.982;-3.222;2022-10-16T10:04:49;100337.25;;;20.00;36.38
70916;BME280;58557;50.982;-3.222;2022-10-16T10:07:16;100333.28;;;21.19;34.63
70916;BME280;58557;50.982;-3.222;2022-10-16T10:09:38;100335.16;;;22.56;32.93
70916;BME280;58557;50.982;-3.222;2022-10-16T10:12:02;100335.71;;;21.56;33.74
70916;BME280;58557;50.982;-3.222;2022-10-16T10:14:30;100335.39;;;21.00;33.97
70916;BME280;58557;50.982;-3.222;2022-10-16T10:17:06;100331.87;;;21.08;34.20
70916;BME280;58557;50.982;-3.222;2022-10-16T10:19:19;100323.94;;;20.12;35.17
70916;BME280;58557;50.982;-3.222;2022-10-16T10:21:44;100329.08;;;20.75;34.79
70916;BME280;58557;50.982;-3.222;2022-10-16T10:24:11;100323.71;;;20.95;33.85
70916;BME280;58557;50.982;-3.222;2022-10-16T10:26:35;100323.37;;;21.36;33.68
70916;BME280;58557;50.982;-3.222;2022-10-16T10:29:02;100326.55;;;20.64;34.53
70916;BME280;58557;50.982;-3.222;2022-10-16T10:31:28;100329.79;;;20.94;34.20
70916;BME280;58557;50.982;-3.222;2022-10-16T10:33:54;100328.21;;;20.64;34.79
70916;BME280;58557;50.982;-3.222;2022-10-16T10:36:28;100322.93;;;19.33;36.82
70916;BME280;58557;50.982;-3.222;2022-10-16T10:38:47;100320.17;;;19.98;36.19
70916;BME280;58557;50.982;-3.222;2022-10-16T10:41:21;100318.95;;;21.21;34.46
70916;BME280;58557;50.982;-3.222;2022-10-16T10:43:44;100321.24;;;21.39;33.67
70916;BME280;58557;50.982;-3.222;2022-10-16T10:46:01;100316.80;;;21.30;35.12
70916;BME280;58557;50.982;-3.222;2022-10-16T10:50:52;100306.30;;;21.87;32.90
70916;BME280;58557;50.982;-3.222;2022-10-16T10:53:29;100301.32;;;21.64;32.82
70916;BME280;58557;50.982;-3.222;2022-10-16T10:55:44;100301.91;;;22.48;32.99
70916;BME280;58557;50.982;-3.222;2022-10-16T10:58:24;100304.20;;;21.95;32.38
70916;BME280;58557;50.982;-3.222;2022-10-16T11:00:40;100304.52;;;22.86;31.68
70916;BME280;58557;50.982;-3.222;2022-10-16T11:03:04;100303.87;;;23.57;31.02
70916;BME280;58557;50.982;-3.222;2022-10-16T11:05:37;100311.16;;;23.66;31.38
70916;BME280;58557;50.982;-3.222;2022-10-16T11:07:51;100309.31;;;21.13;33.54
70916;BME280;58557;50.982;-3.222;2022-10-16T11:10:17;100315.06;;;21.61;34.27
70916;BME280;58557;50.982;-3.222;2022-10-16T11:12:40;100310.57;;;20.93;34.00
70916;BME280;58557;50.982;-3.222;2022-10-16T11:15:11;100308.48;;;20.42;35.41
70916;BME280;58557;50.982;-3.222;2022-10-16T11:17:33;100311.66;;;20.39;36.29
70916;BME280;58557;50.982;-3.222;2022-10-16T11:19:58;100312.90;;;20.53;36.49
70916;BME280;58557;50.982;-3.222;2022-10-16T11:22:23;100317.22;;;18.52;38.55
70916;BME280;58557;50.982;-3.222;2022-10-16T11:24:49;100305.83;;;20.63;36.57
70916;BME280;58557;50.982;-3.222;2022-10-16T11:27:17;100301.17;;;20.86;36.42
70916;BME280;58557;50.982;-3.222;2022-10-16T11:29:44;100296.44;;;21.67;35.24
70916;BME280;58557;50.982;-3.222;2022-10-16T11:32:11;100297.15;;;22.57;34.59
70916;BME280;58557;50.982;-3.222;2022-10-16T11:34:33;100304.04;;;22.46;33.13
70916;BME280;58557;50.982;-3.222;2022-10-16T11:36:57;100298.49;;;22.03;33.15
70916;BME280;58557;50.982;-3.222;2022-10-16T11:39:21;100302.27;;;21.54;33.72
70916;BME280;58557;50.982;-3.222;2022-10-16T11:41:49;100306.79;;;21.87;33.69
70916;BME280;58557;50.982;-3.222;2022-10-16T11:44:19;100310.68;;;19.88;35.66
70916;BME280;58557;50.982;-3.222;2022-10-16T11:46:39;100308.71;;;20.72;35.68
70916;BME280;58557;50.982;-3.222;2022-10-16T11:49:08;100312.75;;;19.62;35.86
70916;BME280;58557;50.982;-3.222;2022-10-16T11:51:33;100315.47;;;19.97;36.74
70916;BME280;58557;50.982;-3.222;2022-10-16T11:53:58;100318.80;;;20.28;36.74
70916;BME280;58557;50.982;-3.222;2022-10-16T11:56:20;100309.52;;;18.71;38.46
70916;BME280;58557;50.982;-3.222;2022-10-16T11:58:52;100306.66;;;20.03;36.83
70916;BME280;58557;50.982;-3.222;2022-10-16T12:01:17;100313.48;;;18.61;38.45
70916;BME280;58557;50.982;-3.222;2022-10-16T12:03:40;100319.73;;;19.17;38.67
70916;BME280;58557;50.982;-3.222;2022-10-16T12:06:14;100317.38;;;18.83;38.46
70916;BME280;58557;50.982;-3.222;2022-10-16T12:08:27;100306.78;;;18.50;38.79
70916;BME280;58557;50.982;-3.222;2022-10-16T12:10:52;100303.91;;;18.32;39.85
70916;BME280;58557;50.982;-3.222;2022-10-16T12:13:28;100296.18;;;18.71;38.62
70916;BME280;58557;50.982;-3.222;2022-10-16T12:15:43;100299.56;;;18.49;37.79
70916;BME280;58557;50.982;-3.222;2022-10-16T12:20:35;100294.55;;;19.39;36.50
70916;BME280;58557;50.982;-3.222;2022-10-16T12:23:03;100292.34;;;19.88;36.17
70916;BME280;58557;50.982;-3.222;2022-10-16T12:25:28;100287.44;;;19.17;36.76
70916;BME280;58557;50.982;-3.222;2022-10-16T12:28:00;100284.91;;;20.28;36.23
70916;BME280;58557;50.982;-3.222;2022-10-16T12:30:22;100281.26;;;19.29;36.88
70916;BME280;58557;50.982;-3.222;2022-10-16T12:32:43;100282.54;;;18.93;37.15
70916;BME280;58557;50.982;-3.222;2022-10-16T12:35:17;100271.82;;;18.96;37.85
70916;BME280;58557;50.982;-3.222;2022-10-16T12:37:35;100270.58;;;19.59;36.71
70916;BME280;58557;50.982;-3.222;2022-10-16T12:42:34;100258.46;;;20.20;36.28
70916;BME280;58557;50.982;-3.222;2022-10-16T12:44:51;100254.73;;;20.16;35.45
70916;BME280;58557;50.982;-3.222;2022-10-16T12:47:22;100247.00;;;19.43;36.65